TRST2: N.F. Wichita River, TX

Data processed at Wed May 22 2019 23:50


All information presented herein is the property of the government of the United States of America and may be revised or deleted at any time without prior notice.
Dissemination of this information without the expressed written consent of the Public Affairs Office, Tulsa District U.S. Army Corps of Engineers is strictly prohibited.
These data are gathered electronically and, as presented, have not undergone any form of quality control. These data are not guaranteed to be valid or correct.
Go to home page.
Go to station list.
Go to home page.

Upstream stations:

Downstream station:
Previous Day
Next Day
Current Day
    
SHEF ID:       TRST2     N Wichita Rv nr Truscott, TX
STATION TYPE:  

               PRECIP     STAGE  RIV-FLOW  BAT-LOAD
                   in        ft       cfs      volt
              Ccp-Rev   Ccp-Rev   Ccp-Rev   Ccp-Rev
(US/Central)
05/22 00:00      0.00      8.71       298     12.81
05/22 01:00      0.00      8.46       271     12.81
05/22 02:00      0.00      8.31       255     12.73
05/22 03:00      0.00      8.16       239     12.73
05/22 04:00      0.00      7.99       221     12.73
05/22 05:00      0.00      7.95       216     12.73
05/22 06:00      0.00      7.83       203     12.65
05/22 07:00      0.00      7.79       198     12.65
05/22 08:00      0.00      7.65       183     13.29
05/22 09:00      0.00      7.58       175     13.44
05/22 10:00      0.00      7.49       165     13.68
05/22 11:00      0.00      7.40       156     13.76
05/22 12:00      0.00      7.34       149     13.92
05/22 13:00      0.00      7.26       140     13.84
05/22 14:00      0.00      7.20       134     13.60
05/22 15:00      0.00      7.13       126     13.68
05/22 16:00      0.00      7.10       123     13.76
05/22 17:00      0.00      7.04       117     13.60
05/22 18:00      0.00      7.01       114     13.44
05/22 19:00      0.00      6.96       109     13.37
05/22 20:00      0.00      6.93       106     13.05
05/22 21:00      0.00      6.91       103     12.89
05/22 22:00      0.00      6.89       101     12.89
05/22 23:00      ----      ----      ----      ----